LiveATC.Net - Listen to live air traffic control over the Internet!


ICAO: EHVL  IATA:   Airport: Vlieland Heliport
City: Vlieland
Country: Netherlands   Continent: Europe
EHVL METAR Weather: EHVL 241525Z AUTO 24012KT 9000 BR FEW003 SCT005 BKN007 06/06 Q1020 REDZ YLO
EHVL Flight Activity (FlightAware)

EHVL CTAF/Range Control
Feed Status: UP   Listeners: 0
Listen in your browser - HTML5 player (in browser, HTML5)
Click here to listen with your own player (launches your MP3 player)
Archive Access: EHVL CTAF/Range Control
FacilityFrequency
Cornfield VHF (CTAF)122.100
Range Controller (Primary)291.650
Range Controller (Secondary)370.300
Range Controller VHF138.075

NOTICE

Unauthorized use prohibited. See LiveATC.net Terms of Service


Airport/ARTCC Code
Frequency Search
(e.g., 124.400, 128.75)
Site-wide search
 


Browse Feeds
Top 50 Feeds
Coverage Map
Bad Weather Areas

LiveATC FAQ
Offer LiveATC feed
Contact LiveATC.net
Press Inquiries

LiveATC on iPhone
LiveATC on Android

Windows Phone
Windows 8/10

LiveATC Mobile
(Mobile browser)

ATC Audio Archives
Interesting Recordings

LiveATC Forums


Home Page
About LiveATC.net
Make a Donation
Terms of Use
Privacy Policy

Canadian Air Freqs

AIRMETs/SIGMETs

FAA Airport Status
Nat'l Airspace Status
Arrival Demand Charts


Server Software By:
Icecast.org
Liquidsoap